sensor_id;sensor_type;location;lat;lon;timestamp;temperature;humidity
17307;DHT22;8771;48.048;7.682;2023-05-20T00:04:03;15.60;66.60
17307;DHT22;8771;48.048;7.682;2023-05-20T00:09:05;15.50;66.50
17307;DHT22;8771;48.048;7.682;2023-05-20T00:14:07;15.60;66.70
17307;DHT22;8771;48.048;7.682;2023-05-20T00:19:10;15.50;66.70
17307;DHT22;8771;48.048;7.682;2023-05-20T00:24:12;15.50;66.50
17307;DHT22;8771;48.048;7.682;2023-05-20T00:29:14;15.60;66.60
17307;DHT22;8771;48.048;7.682;2023-05-20T00:34:18;15.60;66.60
17307;DHT22;8771;48.048;7.682;2023-05-20T00:39:20;15.60;66.60
17307;DHT22;8771;48.048;7.682;2023-05-20T00:44:22;15.50;66.50
17307;DHT22;8771;48.048;7.682;2023-05-20T00:49:27;15.60;66.60
17307;DHT22;8771;48.048;7.682;2023-05-20T00:54:29;15.60;66.70
17307;DHT22;8771;48.048;7.682;2023-05-20T00:59:32;15.50;66.60
17307;DHT22;8771;48.048;7.682;2023-05-20T01:04:35;15.50;66.70
17307;DHT22;8771;48.048;7.682;2023-05-20T01:09:37;15.50;66.70
17307;DHT22;8771;48.048;7.682;2023-05-20T01:14:45;15.50;66.80
17307;DHT22;8771;48.048;7.682;2023-05-20T01:19:50;15.50;66.80
17307;DHT22;8771;48.048;7.682;2023-05-20T01:24:54;15.50;66.90
17307;DHT22;8771;48.048;7.682;2023-05-20T01:29:57;15.50;66.80
17307;DHT22;8771;48.048;7.682;2023-05-20T01:34:59;15.50;67.00
17307;DHT22;8771;48.048;7.682;2023-05-20T01:40:04;15.50;67.00
17307;DHT22;8771;48.048;7.682;2023-05-20T01:45:08;15.50;67.00
17307;DHT22;8771;48.048;7.682;2023-05-20T01:50:10;15.50;67.00
17307;DHT22;8771;48.048;7.682;2023-05-20T01:55:13;15.40;67.00
17307;DHT22;8771;48.048;7.682;2023-05-20T02:00:16;15.40;67.10
17307;DHT22;8771;48.048;7.682;2023-05-20T02:05:17;15.40;67.00
17307;DHT22;8771;48.048;7.682;2023-05-20T02:10:21;15.50;67.10
17307;DHT22;8771;48.048;7.682;2023-05-20T02:15:23;15.40;67.10
17307;DHT22;8771;48.048;7.682;2023-05-20T02:20:25;15.40;67.10
17307;DHT22;8771;48.048;7.682;2023-05-20T02:25:28;15.30;67.20
17307;DHT22;8771;48.048;7.682;2023-05-20T02:30:30;15.30;67.20
17307;DHT22;8771;48.048;7.682;2023-05-20T02:35:32;15.30;67.20
17307;DHT22;8771;48.048;7.682;2023-05-20T02:40:35;15.40;67.20
17307;DHT22;8771;48.048;7.682;2023-05-20T02:45:37;15.40;67.10
17307;DHT22;8771;48.048;7.682;2023-05-20T02:50:39;15.50;67.10
17307;DHT22;8771;48.048;7.682;2023-05-20T02:55:44;15.50;67.10
17307;DHT22;8771;48.048;7.682;2023-05-20T03:00:46;15.50;67.10
17307;DHT22;8771;48.048;7.682;2023-05-20T03:05:48;15.50;67.10
17307;DHT22;8771;48.048;7.682;2023-05-20T03:10:52;15.60;67.10
17307;DHT22;8771;48.048;7.682;2023-05-20T03:15:54;15.60;67.10
17307;DHT22;8771;48.048;7.682;2023-05-20T03:20:56;15.60;67.10
17307;DHT22;8771;48.048;7.682;2023-05-20T03:26:00;15.60;67.10
17307;DHT22;8771;48.048;7.682;2023-05-20T03:31:02;15.60;67.10
17307;DHT22;8771;48.048;7.682;2023-05-20T03:36:05;15.60;67.20
17307;DHT22;8771;48.048;7.682;2023-05-20T03:41:08;15.50;67.10
17307;DHT22;8771;48.048;7.682;2023-05-20T03:46:10;15.40;67.30
17307;DHT22;8771;48.048;7.682;2023-05-20T03:51:12;15.40;67.50
17307;DHT22;8771;48.048;7.682;2023-05-20T03:56:15;15.30;67.50
17307;DHT22;8771;48.048;7.682;2023-05-20T04:01:17;15.30;67.60
17307;DHT22;8771;48.048;7.682;2023-05-20T04:06:20;15.20;67.60
17307;DHT22;8771;48.048;7.682;2023-05-20T04:11:24;15.20;67.60
17307;DHT22;8771;48.048;7.682;2023-05-20T04:16:26;15.20;67.70
17307;DHT22;8771;48.048;7.682;2023-05-20T04:21:29;15.10;67.70
17307;DHT22;8771;48.048;7.682;2023-05-20T04:26:34;15.00;67.90
17307;DHT22;8771;48.048;7.682;2023-05-20T04:31:36;15.00;67.90
17307;DHT22;8771;48.048;7.682;2023-05-20T04:36:38;15.10;67.90
17307;DHT22;8771;48.048;7.682;2023-05-20T04:41:41;15.10;67.90
17307;DHT22;8771;48.048;7.682;2023-05-20T04:46:43;15.10;67.90
17307;DHT22;8771;48.048;7.682;2023-05-20T04:51:45;15.10;67.90
17307;DHT22;8771;48.048;7.682;2023-05-20T04:56:50;15.10;67.90
17307;DHT22;8771;48.048;7.682;2023-05-20T05:01:52;15.20;67.90
17307;DHT22;8771;48.048;7.682;2023-05-20T05:06:55;15.20;67.80
17307;DHT22;8771;48.048;7.682;2023-05-20T05:11:58;15.30;67.70
17307;DHT22;8771;48.048;7.682;2023-05-20T05:17:00;15.40;67.70
17307;DHT22;8771;48.048;7.682;2023-05-20T05:22:02;15.50;67.50
17307;DHT22;8771;48.048;7.682;2023-05-20T05:27:05;15.60;67.50
17307;DHT22;8771;48.048;7.682;2023-05-20T05:32:07;15.70;67.40
17307;DHT22;8771;48.048;7.682;2023-05-20T05:37:09;15.80;67.30
17307;DHT22;8771;48.048;7.682;2023-05-20T05:42:13;16.00;67.20
17307;DHT22;8771;48.048;7.682;2023-05-20T05:47:15;16.20;67.00
17307;DHT22;8771;48.048;7.682;2023-05-20T05:52:17;16.30;67.60
17307;DHT22;8771;48.048;7.682;2023-05-20T05:57:20;16.50;66.70
17307;DHT22;8771;48.048;7.682;2023-05-20T06:02:22;16.70;66.50
17307;DHT22;8771;48.048;7.682;2023-05-20T06:07:24;17.00;66.40
17307;DHT22;8771;48.048;7.682;2023-05-20T06:12:27;17.20;65.90
17307;DHT22;8771;48.048;7.682;2023-05-20T06:17:29;17.60;65.60
17307;DHT22;8771;48.048;7.682;2023-05-20T06:22:31;18.00;65.20
17307;DHT22;8771;48.048;7.682;2023-05-20T06:27:34;18.10;65.00
17307;DHT22;8771;48.048;7.682;2023-05-20T06:32:36;18.10;64.90
17307;DHT22;8771;48.048;7.682;2023-05-20T06:37:38;18.20;65.10
17307;DHT22;8771;48.048;7.682;2023-05-20T06:42:41;18.30;65.10
17307;DHT22;8771;48.048;7.682;2023-05-20T06:47:43;18.30;65.10
17307;DHT22;8771;48.048;7.682;2023-05-20T06:52:47;18.30;65.10
17307;DHT22;8771;48.048;7.682;2023-05-20T06:57:50;18.40;65.20
17307;DHT22;8771;48.048;7.682;2023-05-20T07:02:52;18.50;65.30
17307;DHT22;8771;48.048;7.682;2023-05-20T07:07:54;18.50;65.10
17307;DHT22;8771;48.048;7.682;2023-05-20T07:12:57;18.60;65.10
17307;DHT22;8771;48.048;7.682;2023-05-20T07:17:59;18.60;65.10
17307;DHT22;8771;48.048;7.682;2023-05-20T07:23:03;18.70;65.10
17307;DHT22;8771;48.048;7.682;2023-05-20T07:28:06;18.80;65.00
17307;DHT22;8771;48.048;7.682;2023-05-20T07:33:08;18.70;65.10
17307;DHT22;8771;48.048;7.682;2023-05-20T07:38:10;18.90;65.10
17307;DHT22;8771;48.048;7.682;2023-05-20T07:43:14;19.10;64.80
17307;DHT22;8771;48.048;7.682;2023-05-20T07:48:16;19.30;64.70
17307;DHT22;8771;48.048;7.682;2023-05-20T07:53:18;19.40;64.50
17307;DHT22;8771;48.048;7.682;2023-05-20T07:58:21;19.50;64.60
17307;DHT22;8771;48.048;7.682;2023-05-20T08:03:23;19.50;64.50
17307;DHT22;8771;48.048;7.682;2023-05-20T08:08:26;19.50;64.60
17307;DHT22;8771;48.048;7.682;2023-05-20T08:13:31;19.50;64.70
17307;DHT22;8771;48.048;7.682;2023-05-20T08:18:34;19.40;64.80
17307;DHT22;8771;48.048;7.682;2023-05-20T08:23:37;19.30;65.00
17307;DHT22;8771;48.048;7.682;2023-05-20T08:28:40;19.20;65.20
17307;DHT22;8771;48.048;7.682;2023-05-20T08:33:42;19.10;65.40
17307;DHT22;8771;48.048;7.682;2023-05-20T08:38:44;19.00;65.30
17307;DHT22;8771;48.048;7.682;2023-05-20T08:43:48;19.10;65.40
17307;DHT22;8771;48.048;7.682;2023-05-20T08:48:51;19.20;65.30
17307;DHT22;8771;48.048;7.682;2023-05-20T08:53:53;19.20;65.30
17307;DHT22;8771;48.048;7.682;2023-05-20T08:58:56;19.20;65.30
17307;DHT22;8771;48.048;7.682;2023-05-20T09:03:58;19.30;65.20
17307;DHT22;8771;48.048;7.682;2023-05-20T09:09:00;19.40;65.00
17307;DHT22;8771;48.048;7.682;2023-05-20T09:14:03;19.40;64.80
17307;DHT22;8771;48.048;7.682;2023-05-20T09:19:06;19.50;64.90
17307;DHT22;8771;48.048;7.682;2023-05-20T09:24:09;19.60;64.80
17307;DHT22;8771;48.048;7.682;2023-05-20T09:29:12;19.70;64.70
17307;DHT22;8771;48.048;7.682;2023-05-20T09:34:14;19.70;64.70
17307;DHT22;8771;48.048;7.682;2023-05-20T09:39:21;19.60;64.90
17307;DHT22;8771;48.048;7.682;2023-05-20T09:44:27;19.50;64.90
17307;DHT22;8771;48.048;7.682;2023-05-20T09:49:30;19.50;65.00
17307;DHT22;8771;48.048;7.682;2023-05-20T09:54:32;19.60;64.90
17307;DHT22;8771;48.048;7.682;2023-05-20T09:59:37;19.70;64.80
17307;DHT22;8771;48.048;7.682;2023-05-20T10:04:44;19.80;64.70
17307;DHT22;8771;48.048;7.682;2023-05-20T10:09:56;19.80;64.70
17307;DHT22;8771;48.048;7.682;2023-05-20T10:15:15;20.00;64.60
17307;DHT22;8771;48.048;7.682;2023-05-20T10:20:20;20.20;64.50
17307;DHT22;8771;48.048;7.682;2023-05-20T10:25:26;20.30;64.20
17307;DHT22;8771;48.048;7.682;2023-05-20T10:30:30;20.50;63.90
17307;DHT22;8771;48.048;7.682;2023-05-20T10:35:32;20.70;63.80
17307;DHT22;8771;48.048;7.682;2023-05-20T10:40:34;20.80;63.60
17307;DHT22;8771;48.048;7.682;2023-05-20T10:45:47;20.90;63.60
17307;DHT22;8771;48.048;7.682;2023-05-20T10:50:50;21.00;63.70
17307;DHT22;8771;48.048;7.682;2023-05-20T10:55:54;20.90;63.70
17307;DHT22;8771;48.048;7.682;2023-05-20T11:00:58;21.00;63.80
17307;DHT22;8771;48.048;7.682;2023-05-20T11:06:00;21.20;63.60
17307;DHT22;8771;48.048;7.682;2023-05-20T11:11:02;21.30;63.50
17307;DHT22;8771;48.048;7.682;2023-05-20T11:16:05;21.30;63.50
17307;DHT22;8771;48.048;7.682;2023-05-20T11:21:07;21.50;63.50
17307;DHT22;8771;48.048;7.682;2023-05-20T11:26:10;21.70;63.40
17307;DHT22;8771;48.048;7.682;2023-05-20T11:31:13;21.90;63.10
17307;DHT22;8771;48.048;7.682;2023-05-20T11:36:16;22.00;62.80
17307;DHT22;8771;48.048;7.682;2023-05-20T11:41:22;22.30;62.80
17307;DHT22;8771;48.048;7.682;2023-05-20T11:46:26;22.30;62.70
17307;DHT22;8771;48.048;7.682;2023-05-20T11:51:28;22.30;62.70
17307;DHT22;8771;48.048;7.682;2023-05-20T11:56:32;22.40;62.90
17307;DHT22;8771;48.048;7.682;2023-05-20T12:01:37;22.30;63.70
17307;DHT22;8771;48.048;7.682;2023-05-20T12:06:40;22.40;62.90
17307;DHT22;8771;48.048;7.682;2023-05-20T12:11:43;22.70;62.60
17307;DHT22;8771;48.048;7.682;2023-05-20T12:16:47;22.80;62.30
17307;DHT22;8771;48.048;7.682;2023-05-20T12:21:48;23.00;62.20
17307;DHT22;8771;48.048;7.682;2023-05-20T12:26:52;23.00;62.40
17307;DHT22;8771;48.048;7.682;2023-05-20T12:31:55;23.00;62.40
17307;DHT22;8771;48.048;7.682;2023-05-20T12:36:57;23.10;62.30
17307;DHT22;8771;48.048;7.682;2023-05-20T12:41:59;23.20;62.20
17307;DHT22;8771;48.048;7.682;2023-05-20T12:47:02;23.30;62.00
17307;DHT22;8771;48.048;7.682;2023-05-20T12:52:05;23.40;61.90
17307;DHT22;8771;48.048;7.682;2023-05-20T12:57:07;23.50;61.70
17307;DHT22;8771;48.048;7.682;2023-05-20T13:02:10;23.60;61.80
17307;DHT22;8771;48.048;7.682;2023-05-20T13:07:12;23.60;61.70
17307;DHT22;8771;48.048;7.682;2023-05-20T13:12:14;23.60;61.80
17307;DHT22;8771;48.048;7.682;2023-05-20T13:17:18;23.70;61.90
17307;DHT22;8771;48.048;7.682;2023-05-20T13:22:20;23.60;62.00
17307;DHT22;8771;48.048;7.682;2023-05-20T13:27:22;23.50;62.00
17307;DHT22;8771;48.048;7.682;2023-05-20T13:32:25;23.50;62.20
17307;DHT22;8771;48.048;7.682;2023-05-20T13:37:27;23.60;62.20
17307;DHT22;8771;48.048;7.682;2023-05-20T13:42:29;23.60;62.10
17307;DHT22;8771;48.048;7.682;2023-05-20T13:47:33;23.60;62.20
17307;DHT22;8771;48.048;7.682;2023-05-20T13:52:35;23.70;62.10
17307;DHT22;8771;48.048;7.682;2023-05-20T13:57:36;23.70;62.10
17307;DHT22;8771;48.048;7.682;2023-05-20T14:02:40;23.70;62.10
17307;DHT22;8771;48.048;7.682;2023-05-20T14:07:42;23.70;62.00
17307;DHT22;8771;48.048;7.682;2023-05-20T14:12:43;23.80;62.00
17307;DHT22;8771;48.048;7.682;2023-05-20T14:17:49;23.70;62.20
17307;DHT22;8771;48.048;7.682;2023-05-20T14:22:51;23.70;62.20
17307;DHT22;8771;48.048;7.682;2023-05-20T14:27:53;23.80;62.20
17307;DHT22;8771;48.048;7.682;2023-05-20T14:32:57;23.70;62.30
17307;DHT22;8771;48.048;7.682;2023-05-20T14:37:59;23.70;62.30
17307;DHT22;8771;48.048;7.682;2023-05-20T14:43:01;23.70;62.30
17307;DHT22;8771;48.048;7.682;2023-05-20T14:48:04;23.80;62.20
17307;DHT22;8771;48.048;7.682;2023-05-20T14:53:07;23.60;62.40
17307;DHT22;8771;48.048;7.682;2023-05-20T14:58:09;23.60;62.50
17307;DHT22;8771;48.048;7.682;2023-05-20T15:03:12;23.50;62.50
17307;DHT22;8771;48.048;7.682;2023-05-20T15:08:15;23.50;62.60
17307;DHT22;8771;48.048;7.682;2023-05-20T15:13:17;23.40;62.60
17307;DHT22;8771;48.048;7.682;2023-05-20T15:18:20;23.40;62.60
17307;DHT22;8771;48.048;7.682;2023-05-20T15:23:22;23.50;62.60
17307;DHT22;8771;48.048;7.682;2023-05-20T15:28:24;23.40;62.70
17307;DHT22;8771;48.048;7.682;2023-05-20T15:33:27;23.20;62.90
17307;DHT22;8771;48.048;7.682;2023-05-20T15:38:29;23.20;63.00
17307;DHT22;8771;48.048;7.682;2023-05-20T15:43:31;23.10;63.10
17307;DHT22;8771;48.048;7.682;2023-05-20T15:48:34;23.00;63.20
17307;DHT22;8771;48.048;7.682;2023-05-20T15:53:37;23.00;63.30
17307;DHT22;8771;48.048;7.682;2023-05-20T15:58:39;22.90;63.20
17307;DHT22;8771;48.048;7.682;2023-05-20T16:03:43;22.90;63.30
17307;DHT22;8771;48.048;7.682;2023-05-20T16:08:45;22.80;63.30
17307;DHT22;8771;48.048;7.682;2023-05-20T16:13:47;22.70;64.10
17307;DHT22;8771;48.048;7.682;2023-05-20T16:18:50;22.70;63.40
17307;DHT22;8771;48.048;7.682;2023-05-20T16:23:53;22.70;63.40
17307;DHT22;8771;48.048;7.682;2023-05-20T16:28:55;22.60;63.50
17307;DHT22;8771;48.048;7.682;2023-05-20T16:33:58;22.50;63.50
17307;DHT22;8771;48.048;7.682;2023-05-20T16:39:00;22.50;63.50
17307;DHT22;8771;48.048;7.682;2023-05-20T16:44:02;22.50;63.50
17307;DHT22;8771;48.048;7.682;2023-05-20T16:49:05;22.40;63.50
17307;DHT22;8771;48.048;7.682;2023-05-20T16:54:07;22.30;63.50
17307;DHT22;8771;48.048;7.682;2023-05-20T16:59:09;22.30;63.60
17307;DHT22;8771;48.048;7.682;2023-05-20T17:04:15;22.20;63.60
17307;DHT22;8771;48.048;7.682;2023-05-20T17:09:17;22.20;63.80
17307;DHT22;8771;48.048;7.682;2023-05-20T17:14:19;22.20;63.90
17307;DHT22;8771;48.048;7.682;2023-05-20T17:19:22;22.20;63.80
17307;DHT22;8771;48.048;7.682;2023-05-20T17:24:24;22.10;63.80
17307;DHT22;8771;48.048;7.682;2023-05-20T17:29:26;22.00;63.80
17307;DHT22;8771;48.048;7.682;2023-05-20T17:34:29;22.00;64.00
17307;DHT22;8771;48.048;7.682;2023-05-20T17:39:32;21.90;64.00
17307;DHT22;8771;48.048;7.682;2023-05-20T17:44:34;21.80;64.00
17307;DHT22;8771;48.048;7.682;2023-05-20T17:49:37;21.80;64.10
17307;DHT22;8771;48.048;7.682;2023-05-20T17:54:39;21.70;64.10
17307;DHT22;8771;48.048;7.682;2023-05-20T17:59:41;21.70;64.30
17307;DHT22;8771;48.048;7.682;2023-05-20T18:04:46;21.60;64.30
17307;DHT22;8771;48.048;7.682;2023-05-20T18:09:48;21.50;64.30
17307;DHT22;8771;48.048;7.682;2023-05-20T18:14:50;21.50;64.40
17307;DHT22;8771;48.048;7.682;2023-05-20T18:19:53;21.40;64.50
17307;DHT22;8771;48.048;7.682;2023-05-20T18:24:55;21.30;64.50
17307;DHT22;8771;48.048;7.682;2023-05-20T18:29:57;21.30;64.50
17307;DHT22;8771;48.048;7.682;2023-05-20T18:35:00;21.30;64.60
17307;DHT22;8771;48.048;7.682;2023-05-20T18:40:03;21.20;64.60
17307;DHT22;8771;48.048;7.682;2023-05-20T18:45:07;21.10;64.60
17307;DHT22;8771;48.048;7.682;2023-05-20T18:50:12;21.10;64.70
17307;DHT22;8771;48.048;7.682;2023-05-20T18:55:14;21.00;64.70
17307;DHT22;8771;48.048;7.682;2023-05-20T19:00:17;21.00;64.80
17307;DHT22;8771;48.048;7.682;2023-05-20T19:05:21;20.90;64.80
17307;DHT22;8771;48.048;7.682;2023-05-20T19:10:23;20.90;64.80
17307;DHT22;8771;48.048;7.682;2023-05-20T19:15:25;20.90;64.80
17307;DHT22;8771;48.048;7.682;2023-05-20T19:20:28;20.90;64.90
17307;DHT22;8771;48.048;7.682;2023-05-20T19:25:30;20.80;64.80
17307;DHT22;8771;48.048;7.682;2023-05-20T19:30:33;20.80;64.90
17307;DHT22;8771;48.048;7.682;2023-05-20T19:35:36;20.80;64.90
17307;DHT22;8771;48.048;7.682;2023-05-20T19:40:38;20.80;64.90
17307;DHT22;8771;48.048;7.682;2023-05-20T19:45:40;20.80;64.80
17307;DHT22;8771;48.048;7.682;2023-05-20T19:50:43;20.70;64.80
17307;DHT22;8771;48.048;7.682;2023-05-20T19:55:45;20.70;65.00
17307;DHT22;8771;48.048;7.682;2023-05-20T20:00:47;20.60;65.00
17307;DHT22;8771;48.048;7.682;2023-05-20T20:05:51;20.50;65.10
17307;DHT22;8771;48.048;7.682;2023-05-20T20:10:52;20.30;65.20
17307;DHT22;8771;48.048;7.682;2023-05-20T20:15:54;20.30;65.40
17307;DHT22;8771;48.048;7.682;2023-05-20T20:20:58;20.20;65.40
17307;DHT22;8771;48.048;7.682;2023-05-20T20:26:04;20.10;65.60
17307;DHT22;8771;48.048;7.682;2023-05-20T20:31:07;20.00;65.60
17307;DHT22;8771;48.048;7.682;2023-05-20T20:36:10;19.90;65.60
17307;DHT22;8771;48.048;7.682;2023-05-20T20:41:12;19.80;65.70
17307;DHT22;8771;48.048;7.682;2023-05-20T20:46:15;19.70;65.80
17307;DHT22;8771;48.048;7.682;2023-05-20T20:51:19;19.70;66.00
17307;DHT22;8771;48.048;7.682;2023-05-20T20:56:21;19.60;66.00
17307;DHT22;8771;48.048;7.682;2023-05-20T21:01:25;19.60;66.00
17307;DHT22;8771;48.048;7.682;2023-05-20T21:06:30;19.60;66.00
17307;DHT22;8771;48.048;7.682;2023-05-20T21:11:33;19.50;66.00
17307;DHT22;8771;48.048;7.682;2023-05-20T21:16:39;19.50;66.10
17307;DHT22;8771;48.048;7.682;2023-05-20T21:21:44;19.50;66.00
17307;DHT22;8771;48.048;7.682;2023-05-20T21:26:46;19.50;66.10
17307;DHT22;8771;48.048;7.682;2023-05-20T21:31:47;19.50;66.00
17307;DHT22;8771;48.048;7.682;2023-05-20T21:36:51;19.50;66.10
17307;DHT22;8771;48.048;7.682;2023-05-20T21:41:53;19.50;66.10
17307;DHT22;8771;48.048;7.682;2023-05-20T21:46:55;19.40;66.20
17307;DHT22;8771;48.048;7.682;2023-05-20T21:51:58;19.30;66.30
17307;DHT22;8771;48.048;7.682;2023-05-20T21:57:00;19.20;66.40
17307;DHT22;8771;48.048;7.682;2023-05-20T22:02:03;19.10;66.50
17307;DHT22;8771;48.048;7.682;2023-05-20T22:07:06;19.00;66.60
17307;DHT22;8771;48.048;7.682;2023-05-20T22:12:08;18.90;66.70
17307;DHT22;8771;48.048;7.682;2023-05-20T22:17:10;18.80;66.70
17307;DHT22;8771;48.048;7.682;2023-05-20T22:22:14;18.70;66.70
17307;DHT22;8771;48.048;7.682;2023-05-20T22:27:16;18.70;66.80
17307;DHT22;8771;48.048;7.682;2023-05-20T22:32:17;18.60;66.80
17307;DHT22;8771;48.048;7.682;2023-05-20T22:37:21;18.60;66.90
17307;DHT22;8771;48.048;7.682;2023-05-20T22:42:22;18.60;67.00
17307;DHT22;8771;48.048;7.682;2023-05-20T22:47:24;18.50;67.00
17307;DHT22;8771;48.048;7.682;2023-05-20T22:52:28;18.60;67.10
17307;DHT22;8771;48.048;7.682;2023-05-20T22:57:30;18.60;67.00
17307;DHT22;8771;48.048;7.682;2023-05-20T23:02:32;18.60;67.00
17307;DHT22;8771;48.048;7.682;2023-05-20T23:07:36;18.70;67.10
17307;DHT22;8771;48.048;7.682;2023-05-20T23:12:38;18.70;67.10
17307;DHT22;8771;48.048;7.682;2023-05-20T23:17:40;18.70;67.00
17307;DHT22;8771;48.048;7.682;2023-05-20T23:22:43;18.80;67.10
17307;DHT22;8771;48.048;7.682;2023-05-20T23:27:45;18.80;67.40
17307;DHT22;8771;48.048;7.682;2023-05-20T23:32:47;18.80;67.10
17307;DHT22;8771;48.048;7.682;2023-05-20T23:37:52;18.80;67.20
17307;DHT22;8771;48.048;7.682;2023-05-20T23:42:54;18.70;67.20
17307;DHT22;8771;48.048;7.682;2023-05-20T23:47:56;18.70;67.30
17307;DHT22;8771;48.048;7.682;2023-05-20T23:53:02;18.70;67.40
17307;DHT22;8771;48.048;7.682;2023-05-20T23:58:04;18.70;67.40
